sensor_id;sensor_type;location;lat;lon;timestamp;temperature;humidity
24087;DHT22;22893;50.572;7.234;2022-12-24T00:01:01;22.60;59.10
24087;DHT22;22893;50.572;7.234;2022-12-24T00:03:29;22.60;59.10
24087;DHT22;22893;50.572;7.234;2022-12-24T00:05:56;22.60;59.00
24087;DHT22;22893;50.572;7.234;2022-12-24T00:08:24;22.60;59.00
24087;DHT22;22893;50.572;7.234;2022-12-24T00:10:52;22.60;59.00
24087;DHT22;22893;50.572;7.234;2022-12-24T00:13:20;22.60;59.10
24087;DHT22;22893;50.572;7.234;2022-12-24T00:15:48;22.60;59.00
24087;DHT22;22893;50.572;7.234;2022-12-24T00:18:16;22.60;59.00
24087;DHT22;22893;50.572;7.234;2022-12-24T00:20:48;22.60;59.00
24087;DHT22;22893;50.572;7.234;2022-12-24T00:23:16;22.60;59.40
24087;DHT22;22893;50.572;7.234;2022-12-24T00:25:44;22.60;59.00
24087;DHT22;22893;50.572;7.234;2022-12-24T00:28:12;22.60;58.80
24087;DHT22;22893;50.572;7.234;2022-12-24T00:30:41;22.60;59.00
24087;DHT22;22893;50.572;7.234;2022-12-24T00:33:09;22.60;58.80
24087;DHT22;22893;50.572;7.234;2022-12-24T00:35:38;22.60;58.80
24087;DHT22;22893;50.572;7.234;2022-12-24T00:38:06;22.60;58.80
24087;DHT22;22893;50.572;7.234;2022-12-24T00:40:34;22.60;58.80
24087;DHT22;22893;50.572;7.234;2022-12-24T00:43:02;22.60;58.80
24087;DHT22;22893;50.572;7.234;2022-12-24T00:45:29;22.60;58.80
24087;DHT22;22893;50.572;7.234;2022-12-24T00:47:57;22.60;58.80
24087;DHT22;22893;50.572;7.234;2022-12-24T00:50:24;22.50;58.80
24087;DHT22;22893;50.572;7.234;2022-12-24T00:52:52;22.50;58.80
24087;DHT22;22893;50.572;7.234;2022-12-24T00:55:19;22.50;58.80
24087;DHT22;22893;50.572;7.234;2022-12-24T00:57:47;22.50;58.70
24087;DHT22;22893;50.572;7.234;2022-12-24T01:00:15;22.60;58.80
24087;DHT22;22893;50.572;7.234;2022-12-24T01:02:43;22.60;58.80
24087;DHT22;22893;50.572;7.234;2022-12-24T01:05:11;22.50;58.70
24087;DHT22;22893;50.572;7.234;2022-12-24T01:07:43;22.50;58.70
24087;DHT22;22893;50.572;7.234;2022-12-24T01:10:12;22.50;58.70
24087;DHT22;22893;50.572;7.234;2022-12-24T01:12:40;22.50;58.70
24087;DHT22;22893;50.572;7.234;2022-12-24T01:15:08;22.50;58.60
24087;DHT22;22893;50.572;7.234;2022-12-24T01:17:36;22.50;58.50
24087;DHT22;22893;50.572;7.234;2022-12-24T01:20:04;22.50;58.50
24087;DHT22;22893;50.572;7.234;2022-12-24T01:22:33;22.50;58.50
24087;DHT22;22893;50.572;7.234;2022-12-24T01:25:01;22.50;58.60
24087;DHT22;22893;50.572;7.234;2022-12-24T01:27:28;22.50;58.50
24087;DHT22;22893;50.572;7.234;2022-12-24T01:29:56;22.50;58.50
24087;DHT22;22893;50.572;7.234;2022-12-24T01:32:23;22.50;58.50
24087;DHT22;22893;50.572;7.234;2022-12-24T01:34:51;22.50;58.50
24087;DHT22;22893;50.572;7.234;2022-12-24T01:37:18;22.50;58.50
24087;DHT22;22893;50.572;7.234;2022-12-24T01:39:46;22.50;58.50
24087;DHT22;22893;50.572;7.234;2022-12-24T01:42:21;22.50;58.40
24087;DHT22;22893;50.572;7.234;2022-12-24T01:45:44;22.50;58.40
24087;DHT22;22893;50.572;7.234;2022-12-24T01:53:47;22.50;59.10
24087;DHT22;22893;50.572;7.234;2022-12-24T01:56:16;22.50;58.40
24087;DHT22;22893;50.572;7.234;2022-12-24T01:58:47;22.50;58.30
24087;DHT22;22893;50.572;7.234;2022-12-24T02:01:15;22.50;58.30
24087;DHT22;22893;50.572;7.234;2022-12-24T14:53:58;22.70;63.50
24087;DHT22;22893;50.572;7.234;2022-12-24T14:56:21;22.80;63.40
24087;DHT22;22893;50.572;7.234;2022-12-24T14:58:49;22.80;63.10
24087;DHT22;22893;50.572;7.234;2022-12-24T15:06:51;22.80;63.20
24087;DHT22;22893;50.572;7.234;2022-12-24T15:09:22;22.70;63.30
24087;DHT22;22893;50.572;7.234;2022-12-24T15:11:52;22.60;63.50
24087;DHT22;22893;50.572;7.234;2022-12-24T15:14:23;22.50;63.60
24087;DHT22;22893;50.572;7.234;2022-12-24T15:17:04;22.50;63.70
24087;DHT22;22893;50.572;7.234;2022-12-24T15:19:38;22.50;63.60
24087;DHT22;22893;50.572;7.234;2022-12-24T15:22:18;22.50;63.60
24087;DHT22;22893;50.572;7.234;2022-12-24T15:24:46;22.50;63.50
24087;DHT22;22893;50.572;7.234;2022-12-24T15:27:16;22.50;63.50
24087;DHT22;22893;50.572;7.234;2022-12-24T15:29:46;22.50;63.40
24087;DHT22;22893;50.572;7.234;2022-12-24T15:32:16;22.50;63.50
24087;DHT22;22893;50.572;7.234;2022-12-24T15:34:46;22.50;63.40
24087;DHT22;22893;50.572;7.234;2022-12-24T15:37:26;22.50;63.30
24087;DHT22;22893;50.572;7.234;2022-12-24T15:42:22;22.50;63.20
24087;DHT22;22893;50.572;7.234;2022-12-24T15:45:05;22.50;63.20
24087;DHT22;22893;50.572;7.234;2022-12-24T15:47:41;22.50;63.00
24087;DHT22;22893;50.572;7.234;2022-12-24T15:53:06;22.50;62.90
24087;DHT22;22893;50.572;7.234;2022-12-24T15:55:39;22.50;62.90
24087;DHT22;22893;50.572;7.234;2022-12-24T15:58:22;22.50;62.90
24087;DHT22;22893;50.572;7.234;2022-12-24T16:03:29;22.50;64.00
24087;DHT22;22893;50.572;7.234;2022-12-24T16:06:04;22.50;67.20
24087;DHT22;22893;50.572;7.234;2022-12-24T16:08:38;22.50;67.70
24087;DHT22;22893;50.572;7.234;2022-12-24T16:11:20;22.50;66.00
24087;DHT22;22893;50.572;7.234;2022-12-24T16:14:09;22.50;65.10
24087;DHT22;22893;50.572;7.234;2022-12-24T16:16:40;22.50;64.50
24087;DHT22;22893;50.572;7.234;2022-12-24T16:19:25;22.50;64.10
24087;DHT22;22893;50.572;7.234;2022-12-24T16:21:56;22.50;66.20
24087;DHT22;22893;50.572;7.234;2022-12-24T16:24:27;22.60;67.50
24087;DHT22;22893;50.572;7.234;2022-12-24T16:26:56;22.60;67.40
24087;DHT22;22893;50.572;7.234;2022-12-24T16:29:23;22.60;66.40
24087;DHT22;22893;50.572;7.234;2022-12-24T16:31:55;22.60;65.50
24087;DHT22;22893;50.572;7.234;2022-12-24T16:34:25;22.60;64.80
24087;DHT22;22893;50.572;7.234;2022-12-24T16:36:53;22.60;64.40
24087;DHT22;22893;50.572;7.234;2022-12-24T16:39:32;22.60;64.90
24087;DHT22;22893;50.572;7.234;2022-12-24T16:42:02;22.60;63.70
24087;DHT22;22893;50.572;7.234;2022-12-24T16:44:48;22.60;63.60
24087;DHT22;22893;50.572;7.234;2022-12-24T16:47:20;22.60;62.90
24087;DHT22;22893;50.572;7.234;2022-12-24T16:49:47;22.60;63.30
24087;DHT22;22893;50.572;7.234;2022-12-24T16:52:21;22.60;63.20
24087;DHT22;22893;50.572;7.234;2022-12-24T16:54:49;22.60;63.10
24087;DHT22;22893;50.572;7.234;2022-12-24T16:57:17;22.60;63.00
24087;DHT22;22893;50.572;7.234;2022-12-24T16:59:45;22.60;63.00
24087;DHT22;22893;50.572;7.234;2022-12-24T17:02:15;22.60;62.90
24087;DHT22;22893;50.572;7.234;2022-12-24T17:04:43;22.60;62.90
24087;DHT22;22893;50.572;7.234;2022-12-24T17:07:13;22.60;62.30
24087;DHT22;22893;50.572;7.234;2022-12-24T17:09:41;22.60;62.50
24087;DHT22;22893;50.572;7.234;2022-12-24T17:12:09;22.60;62.60
24087;DHT22;22893;50.572;7.234;2022-12-24T17:14:38;22.50;62.50
24087;DHT22;22893;50.572;7.234;2022-12-24T17:17:05;22.60;62.50
24087;DHT22;22893;50.572;7.234;2022-12-24T17:19:33;22.50;62.70
24087;DHT22;22893;50.572;7.234;2022-12-24T17:22:00;22.50;62.90
24087;DHT22;22893;50.572;7.234;2022-12-24T17:24:28;22.50;62.70
24087;DHT22;22893;50.572;7.234;2022-12-24T17:26:56;22.50;62.80
24087;DHT22;22893;50.572;7.234;2022-12-24T17:29:23;22.60;62.80
24087;DHT22;22893;50.572;7.234;2022-12-24T17:31:51;22.50;62.90
24087;DHT22;22893;50.572;7.234;2022-12-24T17:34:18;22.60;62.80
24087;DHT22;22893;50.572;7.234;2022-12-24T17:36:46;22.60;62.80
24087;DHT22;22893;50.572;7.234;2022-12-24T17:39:13;22.60;62.80
24087;DHT22;22893;50.572;7.234;2022-12-24T17:41:41;22.60;62.80
24087;DHT22;22893;50.572;7.234;2022-12-24T17:44:15;22.60;62.80
24087;DHT22;22893;50.572;7.234;2022-12-24T17:46:39;22.60;62.80
24087;DHT22;22893;50.572;7.234;2022-12-24T17:49:07;22.60;62.90
24087;DHT22;22893;50.572;7.234;2022-12-24T17:51:35;22.50;63.00
24087;DHT22;22893;50.572;7.234;2022-12-24T17:54:02;22.50;62.90
24087;DHT22;22893;50.572;7.234;2022-12-24T17:56:30;22.50;63.20
24087;DHT22;22893;50.572;7.234;2022-12-24T17:58:57;22.60;63.30
24087;DHT22;22893;50.572;7.234;2022-12-24T18:01:26;22.60;63.30
24087;DHT22;22893;50.572;7.234;2022-12-24T18:03:59;22.60;63.40
24087;DHT22;22893;50.572;7.234;2022-12-24T18:06:27;22.60;63.40
24087;DHT22;22893;50.572;7.234;2022-12-24T18:08:55;22.60;63.50
24087;DHT22;22893;50.572;7.234;2022-12-24T18:11:30;22.60;63.60
24087;DHT22;22893;50.572;7.234;2022-12-24T18:13:55;22.60;63.60
24087;DHT22;22893;50.572;7.234;2022-12-24T18:16:31;22.60;63.60
24087;DHT22;22893;50.572;7.234;2022-12-24T18:18:57;22.60;63.60
24087;DHT22;22893;50.572;7.234;2022-12-24T18:21:27;22.60;63.80
24087;DHT22;22893;50.572;7.234;2022-12-24T18:23:56;22.60;63.80
24087;DHT22;22893;50.572;7.234;2022-12-24T18:26:25;22.70;63.70
24087;DHT22;22893;50.572;7.234;2022-12-24T18:28:55;22.70;63.60
24087;DHT22;22893;50.572;7.234;2022-12-24T18:31:23;22.70;64.60
24087;DHT22;22893;50.572;7.234;2022-12-24T18:33:53;22.70;63.70
24087;DHT22;22893;50.572;7.234;2022-12-24T18:36:21;22.70;63.90
24087;DHT22;22893;50.572;7.234;2022-12-24T18:38:49;22.70;63.80
24087;DHT22;22893;50.572;7.234;2022-12-24T18:41:23;22.70;63.90
24087;DHT22;22893;50.572;7.234;2022-12-24T18:43:50;22.70;63.90
24087;DHT22;22893;50.572;7.234;2022-12-24T18:46:20;22.70;63.90
24087;DHT22;22893;50.572;7.234;2022-12-24T18:48:49;22.70;63.90
24087;DHT22;22893;50.572;7.234;2022-12-24T18:51:19;22.70;63.80
24087;DHT22;22893;50.572;7.234;2022-12-24T18:53:49;22.70;64.00
24087;DHT22;22893;50.572;7.234;2022-12-24T18:56:19;22.70;63.90
24087;DHT22;22893;50.572;7.234;2022-12-24T18:58:47;22.70;63.90
24087;DHT22;22893;50.572;7.234;2022-12-24T19:01:18;22.70;63.90
24087;DHT22;22893;50.572;7.234;2022-12-24T19:03:46;22.70;64.10
24087;DHT22;22893;50.572;7.234;2022-12-24T19:06:15;22.70;64.30
24087;DHT22;22893;50.572;7.234;2022-12-24T19:08:43;22.70;64.40
24087;DHT22;22893;50.572;7.234;2022-12-24T19:11:11;22.80;64.60
24087;DHT22;22893;50.572;7.234;2022-12-24T19:13:38;22.80;64.70
24087;DHT22;22893;50.572;7.234;2022-12-24T19:16:07;22.80;64.70
24087;DHT22;22893;50.572;7.234;2022-12-24T19:18:34;22.80;65.50
24087;DHT22;22893;50.572;7.234;2022-12-24T19:21:07;22.80;64.80
24087;DHT22;22893;50.572;7.234;2022-12-24T19:23:34;22.80;65.00
24087;DHT22;22893;50.572;7.234;2022-12-24T19:26:03;22.80;65.10
24087;DHT22;22893;50.572;7.234;2022-12-24T19:28:31;22.80;65.00
24087;DHT22;22893;50.572;7.234;2022-12-24T19:31:06;22.80;65.50
24087;DHT22;22893;50.572;7.234;2022-12-24T19:33:39;22.80;65.40
24087;DHT22;22893;50.572;7.234;2022-12-24T19:36:10;22.80;65.70
24087;DHT22;22893;50.572;7.234;2022-12-24T19:38:37;22.80;65.60
24087;DHT22;22893;50.572;7.234;2022-12-24T19:41:09;22.80;65.20
24087;DHT22;22893;50.572;7.234;2022-12-24T19:43:39;22.80;65.70
24087;DHT22;22893;50.572;7.234;2022-12-24T19:46:08;22.90;66.40
24087;DHT22;22893;50.572;7.234;2022-12-24T19:48:36;22.90;65.90
24087;DHT22;22893;50.572;7.234;2022-12-24T19:51:06;22.90;65.50
24087;DHT22;22893;50.572;7.234;2022-12-24T19:53:35;22.90;65.80
24087;DHT22;22893;50.572;7.234;2022-12-24T19:56:04;22.90;65.90
24087;DHT22;22893;50.572;7.234;2022-12-24T19:58:31;22.90;65.80
24087;DHT22;22893;50.572;7.234;2022-12-24T20:01:11;22.90;65.60
24087;DHT22;22893;50.572;7.234;2022-12-24T20:03:36;22.90;66.40
24087;DHT22;22893;50.572;7.234;2022-12-24T20:06:04;22.90;65.10
24087;DHT22;22893;50.572;7.234;2022-12-24T20:08:32;22.90;65.20
24087;DHT22;22893;50.572;7.234;2022-12-24T20:11:04;22.90;65.10
24087;DHT22;22893;50.572;7.234;2022-12-24T20:13:33;22.90;64.90
24087;DHT22;22893;50.572;7.234;2022-12-24T20:16:14;22.90;64.80
24087;DHT22;22893;50.572;7.234;2022-12-24T20:18:37;22.90;64.70
24087;DHT22;22893;50.572;7.234;2022-12-24T20:21:07;22.90;64.30
24087;DHT22;22893;50.572;7.234;2022-12-24T20:23:39;22.80;64.10
24087;DHT22;22893;50.572;7.234;2022-12-24T20:26:09;22.80;64.00
24087;DHT22;22893;50.572;7.234;2022-12-24T20:28:36;22.80;65.00
24087;DHT22;22893;50.572;7.234;2022-12-24T20:31:12;22.80;63.90
24087;DHT22;22893;50.572;7.234;2022-12-24T20:33:41;22.80;64.10
24087;DHT22;22893;50.572;7.234;2022-12-24T20:36:10;22.80;64.00
24087;DHT22;22893;50.572;7.234;2022-12-24T20:38:38;22.80;64.00
24087;DHT22;22893;50.572;7.234;2022-12-24T20:41:06;22.80;63.90
24087;DHT22;22893;50.572;7.234;2022-12-24T20:43:37;22.90;64.00
24087;DHT22;22893;50.572;7.234;2022-12-24T20:46:05;22.90;64.10
24087;DHT22;22893;50.572;7.234;2022-12-24T20:48:33;22.90;63.90
24087;DHT22;22893;50.572;7.234;2022-12-24T20:51:05;22.90;64.00
24087;DHT22;22893;50.572;7.234;2022-12-24T20:53:36;22.90;64.00
24087;DHT22;22893;50.572;7.234;2022-12-24T20:56:06;22.90;64.20
24087;DHT22;22893;50.572;7.234;2022-12-24T20:58:34;22.90;65.10
24087;DHT22;22893;50.572;7.234;2022-12-24T21:01:09;22.90;64.10
24087;DHT22;22893;50.572;7.234;2022-12-24T21:03:37;22.90;64.20
24087;DHT22;22893;50.572;7.234;2022-12-24T21:06:05;22.90;64.30
24087;DHT22;22893;50.572;7.234;2022-12-24T21:08:33;22.90;64.30
24087;DHT22;22893;50.572;7.234;2022-12-24T21:11:01;22.90;64.20
24087;DHT22;22893;50.572;7.234;2022-12-24T21:13:46;22.80;64.20
24087;DHT22;22893;50.572;7.234;2022-12-24T21:16:14;22.80;64.10
24087;DHT22;22893;50.572;7.234;2022-12-24T21:18:41;22.90;64.00
24087;DHT22;22893;50.572;7.234;2022-12-24T21:21:09;22.90;64.00
24087;DHT22;22893;50.572;7.234;2022-12-24T21:23:36;22.90;63.90
24087;DHT22;22893;50.572;7.234;2022-12-24T21:26:04;22.90;63.90
24087;DHT22;22893;50.572;7.234;2022-12-24T21:28:32;22.90;63.70
24087;DHT22;22893;50.572;7.234;2022-12-24T21:30:59;22.90;63.60
24087;DHT22;22893;50.572;7.234;2022-12-24T21:35:59;22.90;63.30
24087;DHT22;22893;50.572;7.234;2022-12-24T21:38:26;22.90;63.00
24087;DHT22;22893;50.572;7.234;2022-12-24T21:41:10;22.90;62.90
24087;DHT22;22893;50.572;7.234;2022-12-24T21:43:34;22.90;62.90
24087;DHT22;22893;50.572;7.234;2022-12-24T21:46:07;22.90;62.70
24087;DHT22;22893;50.572;7.234;2022-12-24T21:48:35;22.90;62.60
24087;DHT22;22893;50.572;7.234;2022-12-24T21:51:23;22.90;62.50
24087;DHT22;22893;50.572;7.234;2022-12-24T21:53:50;22.90;62.40
24087;DHT22;22893;50.572;7.234;2022-12-24T21:56:36;22.90;62.40
24087;DHT22;22893;50.572;7.234;2022-12-24T21:59:22;22.80;62.40
24087;DHT22;22893;50.572;7.234;2022-12-24T22:01:50;22.80;62.30
24087;DHT22;22893;50.572;7.234;2022-12-24T22:04:18;22.80;62.20
24087;DHT22;22893;50.572;7.234;2022-12-24T22:06:45;22.80;62.20
24087;DHT22;22893;50.572;7.234;2022-12-24T22:09:31;22.80;62.20
24087;DHT22;22893;50.572;7.234;2022-12-24T22:12:16;22.80;62.10
24087;DHT22;22893;50.572;7.234;2022-12-24T22:14:44;22.80;62.10
24087;DHT22;22893;50.572;7.234;2022-12-24T22:17:31;22.80;62.00
24087;DHT22;22893;50.572;7.234;2022-12-24T22:19:58;22.80;61.70
24087;DHT22;22893;50.572;7.234;2022-12-24T22:22:27;22.80;62.80
24087;DHT22;22893;50.572;7.234;2022-12-24T22:24:54;22.80;61.90
24087;DHT22;22893;50.572;7.234;2022-12-24T22:27:22;22.80;61.90
24087;DHT22;22893;50.572;7.234;2022-12-24T22:29:49;22.80;61.90
24087;DHT22;22893;50.572;7.234;2022-12-24T22:32:17;22.80;61.70
